createdAt,value
2017-07-18T00:02:14.153Z,19.97
2017-07-18T00:04:41.631Z,20.14
2017-07-18T00:07:09.117Z,19.90
2017-07-18T00:09:37.434Z,20.00
2017-07-18T00:12:04.954Z,20.22
2017-07-18T00:14:32.560Z,20.20
2017-07-18T00:17:00.017Z,20.33
2017-07-18T00:19:27.504Z,20.39
2017-07-18T00:21:54.961Z,20.65
2017-07-18T00:24:22.542Z,20.46
2017-07-18T00:26:50.017Z,20.32
2017-07-18T00:29:17.497Z,20.13
2017-07-18T00:31:45.021Z,19.95
2017-07-18T00:34:12.507Z,19.95
2017-07-18T00:36:39.975Z,20.31
2017-07-18T00:39:07.455Z,20.05
2017-07-18T00:41:34.949Z,20.40
2017-07-18T00:44:02.453Z,19.97
2017-07-18T00:46:33.734Z,19.60
2017-07-18T00:49:01.289Z,19.71
2017-07-18T00:51:28.739Z,19.88
2017-07-18T00:53:56.220Z,19.70
2017-07-18T00:56:23.672Z,19.66
2017-07-18T00:58:51.599Z,19.57
2017-07-18T01:01:19.078Z,19.63
2017-07-18T01:03:46.509Z,19.65
2017-07-18T01:06:13.999Z,19.66
2017-07-18T01:08:41.463Z,19.53
2017-07-18T01:11:09.014Z,19.42
2017-07-18T01:13:36.529Z,19.54
2017-07-18T01:16:03.986Z,19.50
2017-07-18T01:18:31.440Z,19.47
2017-07-18T01:20:58.906Z,19.57
2017-07-18T01:23:27.083Z,19.22
2017-07-18T01:25:54.555Z,19.22
2017-07-18T01:28:22.026Z,19.61
2017-07-18T01:30:49.525Z,19.28
2017-07-18T01:33:16.975Z,19.22
2017-07-18T01:35:44.602Z,19.18
2017-07-18T01:38:12.070Z,19.28
2017-07-18T01:40:39.540Z,18.96
2017-07-18T01:43:06.987Z,18.98
2017-07-18T01:45:34.508Z,18.95
2017-07-18T01:48:01.947Z,18.88
2017-07-18T01:50:29.454Z,18.91
2017-07-18T01:52:56.943Z,18.91
2017-07-18T01:55:24.460Z,18.84
2017-07-18T01:57:52.006Z,18.92
2017-07-18T02:00:19.476Z,18.88
2017-07-18T02:02:47.038Z,19.18
2017-07-18T02:05:14.591Z,18.90
2017-07-18T02:07:42.138Z,18.69
2017-07-18T02:10:09.579Z,18.87
2017-07-18T02:12:37.081Z,18.97
2017-07-18T02:15:04.610Z,18.20
2017-07-18T02:17:32.079Z,18.67
2017-07-18T02:19:59.535Z,18.57
2017-07-18T02:22:27.098Z,18.72
2017-07-18T02:24:54.649Z,18.49
2017-07-18T02:27:22.123Z,18.92
2017-07-18T02:29:49.609Z,18.60
2017-07-18T02:32:17.092Z,18.58
2017-07-18T02:34:44.552Z,18.76
2017-07-18T02:37:12.030Z,18.02
2017-07-18T02:39:39.475Z,18.59
2017-07-18T02:42:06.956Z,18.46
2017-07-18T02:44:34.523Z,18.44
2017-07-18T02:47:01.995Z,18.51
2017-07-18T02:49:29.448Z,18.48
2017-07-18T02:51:56.915Z,18.48
2017-07-18T02:54:24.426Z,18.61
2017-07-18T02:56:52.012Z,18.71
2017-07-18T02:59:19.456Z,18.47
2017-07-18T03:01:46.903Z,18.43
2017-07-18T03:04:14.459Z,18.09
2017-07-18T03:06:41.918Z,18.15
2017-07-18T03:09:09.379Z,18.11
2017-07-18T03:11:36.819Z,18.11
2017-07-18T03:14:04.386Z,18.10
2017-07-18T03:16:31.832Z,17.99
2017-07-18T03:18:59.408Z,17.90
2017-07-18T03:21:26.851Z,17.93
2017-07-18T03:23:54.414Z,17.60
2017-07-18T03:26:21.872Z,17.97
2017-07-18T03:28:49.446Z,17.99
2017-07-18T03:31:16.896Z,18.14
2017-07-18T03:33:44.461Z,18.06
2017-07-18T03:36:11.909Z,17.97
2017-07-18T03:38:39.395Z,17.96
2017-07-18T03:41:06.848Z,17.81
2017-07-18T03:43:34.393Z,17.78
2017-07-18T03:46:01.848Z,17.76
2017-07-18T03:48:29.387Z,17.79
2017-07-18T03:50:56.851Z,17.57
2017-07-18T03:53:25.336Z,17.77
2017-07-18T03:55:52.769Z,17.74
2017-07-18T03:58:20.379Z,17.66
2017-07-18T04:00:47.819Z,17.63
2017-07-18T04:03:15.386Z,17.62
2017-07-18T04:05:42.915Z,17.63
2017-07-18T04:08:10.383Z,17.70
2017-07-18T04:10:37.843Z,17.72
2017-07-18T04:13:05.294Z,17.82
2017-07-18T04:15:33.110Z,18.14
2017-07-18T04:18:00.622Z,17.73
2017-07-18T04:20:28.109Z,17.81
2017-07-18T04:22:55.594Z,17.97
2017-07-18T04:25:23.196Z,17.97
2017-07-18T04:27:50.683Z,18.10
2017-07-18T04:30:18.207Z,18.04
2017-07-18T04:32:45.659Z,17.95
2017-07-18T04:35:13.131Z,17.83
2017-07-18T04:37:40.576Z,17.91
2017-07-18T04:40:08.262Z,18.02
2017-07-18T04:42:35.806Z,18.00
2017-07-18T04:45:03.308Z,17.88
2017-07-18T04:47:30.801Z,18.34
2017-07-18T04:49:58.428Z,18.12
2017-07-18T04:52:25.934Z,18.17
2017-07-18T04:54:53.482Z,18.22
2017-07-18T04:57:20.913Z,18.39
2017-07-18T04:59:48.515Z,18.59
2017-07-18T05:02:16.095Z,18.62
2017-07-18T05:04:43.574Z,18.79
2017-07-18T05:07:11.076Z,18.77
2017-07-18T05:09:38.514Z,18.81
2017-07-18T05:12:06.000Z,18.90
2017-07-18T05:14:33.553Z,18.94
2017-07-18T05:17:01.116Z,19.23
2017-07-18T05:19:28.563Z,19.59
2017-07-18T05:21:56.032Z,19.98
2017-07-18T05:24:23.596Z,20.22
2017-07-18T05:26:51.073Z,20.56
2017-07-18T05:29:18.529Z,20.68
2017-07-18T05:31:46.005Z,20.98
2017-07-18T05:34:13.437Z,21.11
2017-07-18T05:36:40.960Z,21.56
2017-07-18T05:39:08.408Z,22.02
2017-07-18T05:41:35.973Z,22.00
2017-07-18T05:44:03.426Z,22.22
2017-07-18T05:46:30.997Z,22.38
2017-07-18T05:48:58.430Z,22.65
2017-07-18T05:51:25.895Z,23.11
2017-07-18T05:53:53.342Z,23.46
2017-07-18T05:56:20.841Z,23.68
2017-07-18T05:58:48.371Z,23.72
2017-07-18T06:01:15.823Z,23.99
2017-07-18T06:03:43.295Z,23.54
2017-07-18T06:06:10.778Z,23.45
2017-07-18T06:08:38.242Z,23.47
2017-07-18T06:11:05.762Z,23.89
2017-07-18T06:13:33.218Z,24.32
2017-07-18T06:16:00.653Z,24.33
2017-07-18T06:18:28.142Z,24.75
2017-07-18T06:20:55.591Z,24.44
2017-07-18T06:23:23.137Z,24.52
2017-07-18T06:25:50.574Z,24.07
2017-07-18T06:28:18.037Z,24.95
2017-07-18T06:30:45.506Z,25.06
2017-07-18T06:33:13.064Z,25.47
2017-07-18T06:35:40.515Z,25.14
2017-07-18T06:38:08.100Z,24.89
2017-07-18T06:40:35.653Z,24.49
2017-07-18T06:43:03.506Z,24.77
2017-07-18T06:45:30.942Z,24.55
2017-07-18T06:47:58.741Z,24.98
2017-07-18T06:50:26.204Z,24.94
2017-07-18T06:52:53.705Z,24.64
2017-07-18T06:55:21.239Z,24.72
2017-07-18T06:57:48.758Z,24.50
2017-07-18T07:00:16.473Z,24.77
2017-07-18T07:02:44.007Z,24.58
2017-07-18T07:05:11.539Z,24.26
2017-07-18T07:07:38.969Z,24.31
2017-07-18T07:10:06.423Z,24.11
2017-07-18T07:12:33.874Z,24.39
2017-07-18T07:15:01.384Z,24.14
2017-07-18T07:17:29.107Z,24.37
2017-07-18T07:19:56.647Z,24.09
2017-07-18T07:22:24.183Z,23.92
2017-07-18T07:24:51.661Z,24.04
2017-07-18T07:27:19.128Z,24.52
2017-07-18T07:29:47.039Z,24.46
2017-07-18T07:32:14.577Z,24.51
2017-07-18T07:34:42.068Z,24.55
2017-07-18T07:37:09.533Z,24.78
2017-07-18T07:39:37.374Z,25.12
2017-07-18T07:42:04.985Z,25.07
2017-07-18T07:44:32.442Z,24.72
2017-07-18T07:46:59.944Z,25.64
2017-07-18T07:49:27.424Z,25.04
2017-07-18T07:51:54.867Z,25.12
2017-07-18T07:54:22.565Z,25.31
2017-07-18T07:56:50.129Z,25.14
2017-07-18T07:59:17.637Z,25.73
2017-07-18T08:01:45.155Z,26.05
2017-07-18T08:04:12.706Z,25.49
2017-07-18T08:06:40.501Z,25.91
2017-07-18T08:09:07.967Z,26.11
2017-07-18T08:11:35.411Z,26.32
2017-07-18T08:14:03.019Z,26.00
2017-07-18T08:16:30.461Z,26.41
2017-07-18T08:18:57.937Z,26.23
2017-07-18T08:21:25.412Z,25.93
2017-07-18T08:23:52.917Z,26.04
2017-07-18T08:26:20.373Z,25.76
2017-07-18T08:28:47.880Z,26.36
2017-07-18T08:31:15.383Z,25.77
2017-07-18T08:33:42.845Z,26.48
2017-07-18T08:36:10.310Z,26.62
2017-07-18T08:38:37.750Z,26.69
2017-07-18T08:41:05.223Z,26.54
2017-07-18T08:43:32.755Z,26.53
2017-07-18T08:46:00.214Z,26.30
2017-07-18T08:48:27.670Z,26.27
2017-07-18T08:50:55.250Z,26.50
2017-07-18T08:53:22.701Z,26.76
2017-07-18T08:55:50.161Z,26.77
2017-07-18T08:58:17.593Z,27.10
2017-07-18T09:00:45.076Z,26.75
2017-07-18T09:03:12.526Z,27.00
2017-07-18T09:05:40.084Z,27.08
2017-07-18T09:08:07.630Z,26.81
2017-07-18T09:10:35.196Z,27.14
2017-07-18T09:13:02.647Z,27.04
2017-07-18T09:15:30.219Z,27.34
2017-07-18T09:17:57.758Z,27.05
2017-07-18T09:20:25.233Z,27.22
2017-07-18T09:22:52.784Z,27.24
2017-07-18T09:25:20.226Z,27.05
2017-07-18T09:27:47.802Z,27.54
2017-07-18T09:30:15.260Z,27.39
2017-07-18T09:32:42.821Z,26.96
2017-07-18T09:35:10.369Z,27.43
2017-07-18T09:37:37.938Z,27.29
2017-07-18T09:40:05.506Z,27.22
2017-07-18T09:42:32.966Z,27.37
2017-07-18T09:45:00.497Z,27.55
2017-07-18T09:47:27.954Z,27.55
2017-07-18T09:49:55.385Z,27.79
2017-07-18T09:52:22.852Z,27.66
2017-07-18T09:54:50.289Z,27.59
2017-07-18T09:57:17.786Z,27.78
2017-07-18T09:59:45.225Z,27.55
2017-07-18T10:02:12.711Z,27.89
2017-07-18T10:04:40.174Z,28.17
2017-07-18T10:07:07.710Z,28.26
2017-07-18T10:09:35.282Z,28.23
2017-07-18T10:12:02.727Z,28.38
2017-07-18T10:14:30.300Z,27.98
2017-07-18T10:16:57.843Z,28.44
2017-07-18T10:19:25.666Z,28.61
2017-07-18T10:21:53.234Z,28.76
2017-07-18T10:24:20.707Z,28.50
2017-07-18T10:26:48.146Z,28.14
2017-07-18T10:29:15.645Z,28.22
2017-07-18T10:31:43.336Z,28.42
2017-07-18T10:34:10.873Z,28.70
2017-07-18T10:36:38.313Z,28.76
2017-07-18T10:39:05.785Z,28.72
2017-07-18T10:41:33.243Z,28.67
2017-07-18T10:44:00.947Z,28.42
2017-07-18T10:46:28.549Z,28.42
2017-07-18T10:48:55.982Z,28.72
2017-07-18T10:51:23.525Z,28.86
2017-07-18T10:53:51.033Z,29.32
2017-07-18T10:56:18.583Z,29.01
2017-07-18T10:58:46.033Z,29.22
2017-07-18T11:01:14.409Z,29.23
2017-07-18T11:03:41.860Z,29.51
2017-07-18T11:06:09.289Z,29.46
2017-07-18T11:08:36.763Z,28.98
2017-07-18T11:11:04.305Z,29.34
2017-07-18T11:13:31.760Z,29.82
2017-07-18T11:15:59.205Z,30.31
2017-07-18T11:18:26.718Z,29.85
2017-07-18T11:20:54.154Z,29.87
2017-07-18T11:23:21.636Z,29.16
2017-07-18T11:25:49.191Z,29.27
2017-07-18T11:28:16.653Z,30.03
2017-07-18T11:30:44.104Z,29.64
2017-07-18T11:33:11.576Z,29.96
2017-07-18T11:35:39.113Z,29.91
2017-07-18T11:38:06.542Z,30.20
2017-07-18T11:40:34.000Z,30.21
2017-07-18T11:43:01.471Z,30.58
2017-07-18T11:45:29.032Z,30.94
2017-07-18T11:47:56.490Z,30.82
2017-07-18T11:50:23.945Z,30.08
2017-07-18T11:52:51.409Z,30.34
2017-07-18T11:55:19.034Z,29.90
2017-07-18T11:57:46.510Z,29.70
2017-07-18T12:00:13.977Z,29.81
2017-07-18T12:02:41.450Z,29.53
2017-07-18T12:05:08.915Z,29.34
2017-07-18T12:07:36.790Z,30.08
2017-07-18T12:10:04.333Z,30.12
2017-07-18T12:12:31.790Z,30.28
2017-07-18T12:14:59.350Z,29.82
2017-07-18T12:17:26.923Z,29.84
2017-07-18T12:19:54.481Z,30.09
2017-07-18T12:22:21.937Z,29.45
2017-07-18T12:24:49.379Z,30.14
2017-07-18T12:27:16.841Z,30.09
2017-07-18T12:29:44.286Z,30.39
2017-07-18T12:32:11.779Z,29.78
2017-07-18T12:34:39.226Z,30.24
2017-07-18T12:37:06.706Z,29.87
2017-07-18T12:39:34.217Z,30.22
2017-07-18T12:42:01.673Z,30.23
2017-07-18T12:44:29.129Z,30.52
2017-07-18T12:46:56.614Z,30.90
2017-07-18T12:49:24.142Z,30.50
2017-07-18T12:51:51.692Z,30.26
2017-07-18T12:54:19.221Z,30.58
2017-07-18T12:56:46.710Z,30.78
2017-07-18T12:59:14.183Z,30.72
2017-07-18T13:01:41.733Z,30.76
2017-07-18T13:04:09.278Z,30.58
2017-07-18T13:06:37.028Z,30.55
2017-07-18T13:09:04.508Z,30.77
2017-07-18T13:11:31.955Z,30.98
2017-07-18T13:13:59.417Z,30.75
2017-07-18T13:16:26.886Z,30.72
2017-07-18T13:18:54.353Z,30.91
2017-07-18T13:21:21.907Z,30.50
2017-07-18T13:23:49.448Z,30.51
2017-07-18T13:26:16.907Z,30.54
2017-07-18T13:28:44.498Z,30.95
2017-07-18T13:31:12.014Z,30.83
2017-07-18T13:33:39.462Z,31.07
2017-07-18T13:36:07.043Z,30.79
2017-07-18T13:38:34.608Z,30.94
2017-07-18T13:41:02.074Z,30.75
2017-07-18T13:43:29.523Z,30.93
2017-07-18T13:45:57.066Z,31.32
2017-07-18T13:48:24.617Z,31.18
2017-07-18T13:50:52.177Z,30.96
2017-07-18T13:53:20.993Z,30.85
2017-07-18T13:55:48.465Z,30.94
2017-07-18T13:58:15.976Z,31.61
2017-07-18T14:00:43.433Z,31.60
2017-07-18T14:03:10.961Z,31.56
2017-07-18T14:05:38.599Z,31.51
2017-07-18T14:08:06.062Z,31.56
2017-07-18T14:10:33.522Z,31.93
2017-07-18T14:13:01.035Z,31.97
2017-07-18T14:15:28.470Z,31.64
2017-07-18T14:17:55.921Z,31.53
2017-07-18T14:20:23.396Z,31.56
2017-07-18T14:22:50.865Z,31.23
2017-07-18T14:25:18.306Z,31.16
2017-07-18T14:27:45.785Z,30.95
2017-07-18T14:30:13.240Z,31.16
2017-07-18T14:32:40.688Z,31.20
2017-07-18T14:35:08.155Z,31.12
2017-07-18T14:37:35.713Z,31.22
2017-07-18T14:40:03.183Z,30.94
2017-07-18T14:42:30.619Z,31.41
2017-07-18T14:44:58.166Z,31.46
2017-07-18T14:47:25.635Z,31.66
2017-07-18T14:49:53.200Z,31.09
2017-07-18T14:52:20.668Z,31.40
2017-07-18T14:54:48.121Z,31.64
2017-07-18T14:57:15.664Z,31.35
2017-07-18T14:59:43.132Z,31.34
2017-07-18T15:02:10.579Z,31.19
2017-07-18T15:04:38.136Z,31.49
2017-07-18T15:07:05.574Z,31.47
2017-07-18T15:09:33.026Z,31.60
2017-07-18T15:12:00.505Z,31.56
2017-07-18T15:14:28.073Z,31.58
2017-07-18T15:16:55.513Z,31.56
2017-07-18T15:19:23.003Z,31.42
2017-07-18T15:21:50.504Z,31.15
2017-07-18T15:24:17.950Z,31.41
2017-07-18T15:26:45.415Z,31.16
2017-07-18T15:29:12.851Z,31.20
2017-07-18T15:31:40.361Z,31.06
2017-07-18T15:34:07.901Z,30.52
2017-07-18T15:36:35.481Z,30.82
2017-07-18T15:39:02.926Z,30.54
2017-07-18T15:41:30.494Z,30.75
2017-07-18T15:43:57.934Z,30.76
2017-07-18T15:46:25.406Z,30.94
2017-07-18T15:48:52.883Z,30.65
2017-07-18T15:51:20.417Z,30.71
2017-07-18T15:53:47.874Z,30.86
2017-07-18T15:56:15.422Z,30.87
2017-07-18T15:58:42.882Z,31.19
2017-07-18T16:01:10.458Z,31.24
2017-07-18T16:03:38.003Z,30.99
2017-07-18T16:06:05.562Z,30.86
2017-07-18T16:08:33.079Z,30.83
2017-07-18T16:11:00.548Z,30.84
2017-07-18T16:13:28.061Z,30.76
2017-07-18T16:15:56.135Z,30.84
2017-07-18T16:18:23.657Z,30.86
2017-07-18T16:20:51.089Z,30.96
2017-07-18T16:23:18.579Z,30.66
2017-07-18T16:25:46.012Z,30.58
2017-07-18T16:28:13.703Z,30.60
2017-07-18T16:30:41.259Z,30.59
2017-07-18T16:33:08.716Z,30.54
2017-07-18T16:35:36.177Z,30.53
2017-07-18T16:38:03.645Z,30.59
2017-07-18T16:40:31.081Z,30.61
2017-07-18T16:42:58.634Z,30.54
2017-07-18T16:45:26.114Z,30.55
2017-07-18T16:47:53.575Z,30.51
2017-07-18T16:50:21.168Z,30.71
2017-07-18T16:52:48.641Z,30.65
2017-07-18T16:55:16.094Z,30.66
2017-07-18T16:57:43.556Z,30.69
2017-07-18T17:00:11.064Z,30.71
2017-07-18T17:02:38.598Z,30.53
2017-07-18T17:05:06.070Z,30.68
2017-07-18T17:07:33.610Z,30.65
2017-07-18T17:10:01.161Z,30.45
2017-07-18T17:12:28.594Z,30.35
2017-07-18T17:14:56.552Z,30.29
2017-07-18T17:17:24.027Z,30.48
2017-07-18T17:19:51.482Z,30.34
2017-07-18T17:22:18.929Z,30.29
2017-07-18T17:24:46.389Z,30.01
2017-07-18T17:27:13.904Z,29.93
2017-07-18T17:29:41.441Z,29.88
2017-07-18T17:32:08.921Z,29.88
2017-07-18T17:34:36.382Z,29.75
2017-07-18T17:37:03.902Z,29.74
2017-07-18T17:39:31.382Z,29.71
2017-07-18T17:41:58.832Z,29.60
2017-07-18T17:44:26.286Z,29.44
2017-07-18T17:46:53.836Z,29.46
2017-07-18T17:49:21.311Z,29.48
2017-07-18T17:51:48.850Z,29.41
2017-07-18T17:54:16.408Z,29.39
2017-07-18T17:56:43.858Z,29.26
2017-07-18T17:59:11.356Z,29.16
2017-07-18T18:01:38.869Z,29.34
2017-07-18T18:04:06.342Z,29.29
2017-07-18T18:06:33.805Z,29.29
2017-07-18T18:09:01.262Z,29.19
2017-07-18T18:11:28.719Z,28.99
2017-07-18T18:13:56.276Z,28.83
2017-07-18T18:16:23.756Z,28.71
2017-07-18T18:18:51.293Z,28.36
2017-07-18T18:21:18.860Z,28.32
2017-07-18T18:23:46.386Z,28.33
2017-07-18T18:26:14.322Z,28.25
2017-07-18T18:28:41.881Z,28.12
2017-07-18T18:31:09.397Z,28.00
2017-07-18T18:33:36.838Z,28.23
2017-07-18T18:36:04.396Z,27.96
2017-07-18T18:38:31.930Z,28.12
2017-07-18T18:40:59.421Z,27.89
2017-07-18T18:43:26.903Z,27.77
2017-07-18T18:45:54.421Z,27.74
2017-07-18T18:48:21.883Z,27.78
2017-07-18T18:50:49.449Z,27.68
2017-07-18T18:53:16.998Z,27.65
2017-07-18T18:55:44.465Z,27.70
2017-07-18T18:58:11.933Z,27.68
2017-07-18T19:00:39.374Z,27.83
2017-07-18T19:03:06.918Z,27.68
2017-07-18T19:05:34.388Z,27.71
2017-07-18T19:08:01.875Z,27.79
2017-07-18T19:10:29.386Z,27.60
2017-07-18T19:12:56.851Z,27.45
2017-07-18T19:15:24.331Z,27.42
2017-07-18T19:17:51.778Z,27.52
2017-07-18T19:20:19.238Z,27.39
2017-07-18T19:22:46.683Z,27.07
2017-07-18T19:25:14.149Z,27.07
2017-07-18T19:27:41.602Z,27.03
2017-07-18T19:30:09.108Z,26.89
2017-07-18T19:32:36.606Z,26.79
2017-07-18T19:35:04.079Z,26.79
2017-07-18T19:37:31.624Z,26.61
2017-07-18T19:39:59.672Z,26.72
2017-07-18T19:42:27.210Z,26.69
2017-07-18T19:44:54.665Z,26.58
2017-07-18T19:47:22.158Z,26.58
2017-07-18T19:49:49.607Z,26.70
2017-07-18T19:52:17.344Z,26.60
2017-07-18T19:54:44.851Z,26.65
2017-07-18T19:57:12.373Z,26.49
2017-07-18T19:59:39.859Z,26.39
2017-07-18T20:02:07.322Z,26.40
2017-07-18T20:04:35.246Z,26.33
2017-07-18T20:07:02.740Z,26.24
2017-07-18T20:09:30.191Z,26.29
2017-07-18T20:11:57.664Z,26.24
2017-07-18T20:14:25.108Z,26.27
2017-07-18T20:16:52.871Z,26.24
2017-07-18T20:19:20.435Z,26.21
2017-07-18T20:21:47.903Z,26.25
2017-07-18T20:24:15.355Z,26.21
2017-07-18T20:26:42.874Z,26.26
2017-07-18T20:29:10.313Z,26.18
2017-07-18T20:31:37.826Z,26.24
2017-07-18T20:34:05.287Z,26.13
2017-07-18T20:36:32.835Z,25.97
2017-07-18T20:39:00.322Z,26.02
2017-07-18T20:41:28.254Z,26.05
2017-07-18T20:43:55.809Z,25.95
2017-07-18T20:46:23.263Z,25.91
2017-07-18T20:48:50.778Z,26.05
2017-07-18T20:51:18.297Z,25.98
2017-07-18T20:53:45.800Z,26.01
2017-07-18T20:56:13.253Z,25.97
2017-07-18T20:58:40.748Z,26.01
2017-07-18T21:01:08.195Z,26.16
2017-07-18T21:03:35.766Z,26.00
2017-07-18T21:06:03.795Z,26.26
2017-07-18T21:08:31.263Z,26.41
2017-07-18T21:10:58.751Z,26.18
2017-07-18T21:13:26.205Z,26.12
2017-07-18T21:15:53.642Z,25.82
2017-07-18T21:18:22.242Z,25.73
2017-07-18T21:20:49.677Z,25.58
2017-07-18T21:23:17.115Z,25.34
2017-07-18T21:25:44.573Z,25.33
2017-07-18T21:28:12.133Z,25.34
2017-07-18T21:30:39.599Z,25.14
2017-07-18T21:33:07.063Z,25.00
2017-07-18T21:35:34.548Z,25.05
2017-07-18T21:38:01.981Z,24.99
2017-07-18T21:40:29.441Z,24.72
2017-07-18T21:42:57.190Z,24.69
2017-07-18T21:45:24.641Z,24.60
2017-07-18T21:47:52.086Z,24.46
2017-07-18T21:50:19.545Z,24.52
2017-07-18T21:52:47.106Z,24.39
2017-07-18T21:55:16.235Z,24.45
2017-07-18T21:57:43.690Z,24.53
2017-07-18T22:00:11.161Z,24.54
2017-07-18T22:02:38.614Z,25.05
2017-07-18T22:05:06.050Z,24.75
2017-07-18T22:07:33.511Z,24.56
2017-07-18T22:10:00.992Z,24.42
2017-07-18T22:12:28.542Z,24.31
2017-07-18T22:14:55.982Z,24.20
2017-07-18T22:17:23.457Z,24.12
2017-07-18T22:19:50.915Z,24.19
2017-07-18T22:22:18.386Z,24.11
2017-07-18T22:24:45.842Z,24.18
2017-07-18T22:27:13.390Z,24.12
2017-07-18T22:29:40.931Z,24.05
2017-07-18T22:32:08.485Z,24.07
2017-07-18T22:34:35.956Z,24.06
2017-07-18T22:37:03.512Z,23.81
2017-07-18T22:39:30.960Z,23.97
2017-07-18T22:41:58.536Z,23.79
2017-07-18T22:44:25.970Z,23.80
2017-07-18T22:46:53.541Z,23.89
2017-07-18T22:49:20.984Z,23.89
2017-07-18T22:51:48.447Z,23.81
2017-07-18T22:54:16.502Z,23.83
2017-07-18T22:56:43.978Z,23.79
2017-07-18T22:59:11.437Z,23.93
2017-07-18T23:01:38.894Z,24.22
2017-07-18T23:04:06.365Z,24.31
2017-07-18T23:06:34.220Z,23.83
2017-07-18T23:09:01.732Z,24.02
2017-07-18T23:11:29.243Z,23.30
2017-07-18T23:13:56.724Z,23.49
2017-07-18T23:16:24.256Z,23.42
2017-07-18T23:18:51.797Z,23.43
2017-07-18T23:21:19.270Z,23.40
2017-07-18T23:23:46.734Z,23.32
2017-07-18T23:26:14.174Z,23.02
2017-07-18T23:28:41.741Z,23.27
2017-07-18T23:31:09.300Z,23.40
2017-07-18T23:33:36.752Z,23.33
2017-07-18T23:36:04.212Z,23.25
2017-07-18T23:38:31.681Z,23.20
2017-07-18T23:40:59.151Z,22.95
2017-07-18T23:43:26.688Z,23.08
2017-07-18T23:45:54.243Z,22.97
2017-07-18T23:48:21.706Z,22.68
2017-07-18T23:50:49.259Z,22.73
2017-07-18T23:53:16.715Z,22.83
2017-07-18T23:55:44.214Z,22.71
2017-07-18T23:58:11.713Z,22.82
